Petra, Utah
Current Conditions -  °F | °C
As of 5:52 AM on Friday 31 Oct 2014 (Local Time) from KMLF Reporting Station
Clear Clear  
Wind Chill: 40°   Ceiling: Unl
Heat Index: 40°   Visibility: 10mi
Dew Point: 23°   Wind: 0mph
Humidity: 51%   Direction: NA
Pressure: 30.07"   Gusts: NA
Location:  39.0932°N, 113.543°W
Report Text: KMLF 311152Z AUTO 00000KT 10SM CLR 04/M05 A3007 RMK AO2 SLP146 T00441050 10072 20039 55007 TSNO
Loading
Personal Weather Stations






























Interactive Weather Map
Tropical Storm Tracking
New forecast layout! Learn more

10-Day Weather Forecast

Advertisements
Track Severe Weather on mobile